createdAt,value
2023-05-08T00:00:28.845Z,50921.88
2023-05-08T00:05:55.614Z,50899.88
2023-05-08T00:11:01.618Z,50881.88
2023-05-08T00:16:05.856Z,50821.91
2023-05-08T00:21:10.209Z,50835.91
2023-05-08T00:26:15.776Z,50827.91
2023-05-08T00:31:19.873Z,50825.91
2023-05-08T00:36:24.459Z,50815.91
2023-05-08T00:41:30.093Z,50799.91
2023-05-08T00:46:34.265Z,50779.91
2023-05-08T00:51:39.153Z,50801.91
2023-05-08T00:56:46.852Z,50809.91
2023-05-08T01:01:53.468Z,50825.91
2023-05-08T01:06:58.299Z,50817.91
2023-05-08T01:12:12.173Z,50779.91
2023-05-08T01:17:24.613Z,50757.91
2023-05-08T01:22:52.913Z,50753.91
2023-05-08T01:28:18.822Z,50731.94
2023-05-08T01:33:31.841Z,50751.91
2023-05-08T01:38:48.580Z,50717.94
2023-05-08T01:44:01.154Z,50737.94
2023-05-08T01:49:10.686Z,50721.94
2023-05-08T01:54:20.034Z,50769.91
2023-05-08T01:59:26.074Z,50747.91
2023-05-08T02:04:33.536Z,50783.91
2023-05-08T02:09:39.276Z,50751.91
2023-05-08T02:14:45.165Z,50769.91
2023-05-08T02:19:53.992Z,50795.91
2023-05-08T02:24:59.258Z,50749.91
2023-05-08T02:30:03.923Z,50777.91
2023-05-08T02:35:12.489Z,50775.91
2023-05-08T02:40:19.099Z,50789.91
2023-05-08T02:45:27.824Z,50793.91
2023-05-08T02:50:39.878Z,50765.91
2023-05-08T02:55:50.716Z,50757.91
2023-05-08T03:01:00.918Z,50743.91
2023-05-08T03:06:23.348Z,50811.91
2023-05-08T03:11:34.194Z,50729.94
2023-05-08T03:16:44.463Z,50757.91
2023-05-08T03:21:52.810Z,50747.91
2023-05-08T03:27:02.219Z,50781.91
2023-05-08T03:32:08.530Z,50819.91
2023-05-08T03:37:15.390Z,50793.91
2023-05-08T03:42:22.516Z,50779.91
2023-05-08T03:47:27.391Z,50777.91
2023-05-08T03:52:33.875Z,50779.91
2023-05-08T03:57:47.493Z,50741.94
2023-05-08T04:02:58.192Z,50731.94
2023-05-08T04:08:11.107Z,50695.94
2023-05-08T04:13:18.172Z,50727.94
2023-05-08T04:18:29.562Z,50657.94
2023-05-08T04:23:40.685Z,50665.94
2023-05-08T04:28:47.218Z,50671.94
2023-05-08T04:33:52.360Z,50713.94
2023-05-08T04:38:59.253Z,50685.94
2023-05-08T04:44:04.955Z,50687.94
2023-05-08T04:49:09.465Z,50729.94
2023-05-08T04:54:15.441Z,50727.94
2023-05-08T04:59:20.809Z,50749.91
2023-05-08T05:04:25.247Z,50733.94
2023-05-08T05:09:37.216Z,50745.91
2023-05-08T05:14:42.569Z,50695.94
2023-05-08T05:19:47.382Z,50725.94
2023-05-08T05:24:52.999Z,50755.91
2023-05-08T05:30:01.341Z,50765.91
2023-05-08T05:35:10.614Z,50719.94
2023-05-08T05:40:16.835Z,50725.94
2023-05-08T05:45:22.015Z,50701.94
2023-05-08T05:50:27.418Z,50657.94
2023-05-08T05:55:35.729Z,50705.94
2023-05-08T06:00:40.223Z,50669.94
2023-05-08T06:05:44.842Z,50661.94
2023-05-08T06:10:50.432Z,50699.94
2023-05-08T06:15:57.408Z,50709.94
2023-05-08T06:21:02.510Z,50717.94
2023-05-08T06:26:08.337Z,50743.91
2023-05-08T06:31:12.643Z,50729.94
2023-05-08T06:36:17.417Z,50723.94
2023-05-08T06:41:23.108Z,50783.91
2023-05-08T06:46:27.723Z,50705.94
2023-05-08T06:51:32.037Z,50715.94
2023-05-08T06:56:37.960Z,50715.94
2023-05-08T07:01:42.215Z,50829.91
2023-05-08T07:06:46.431Z,50879.88
2023-05-08T07:11:52.260Z,50799.91
2023-05-08T07:16:56.672Z,50813.91
2023-05-08T07:22:01.747Z,50753.91
2023-05-08T07:27:07.348Z,50645.97
2023-05-08T07:32:12.132Z,50657.94
2023-05-08T07:37:16.248Z,50741.94
2023-05-08T07:42:22.819Z,50969.84
2023-05-08T07:47:29.454Z,51051.84
2023-05-08T07:52:34.209Z,51077.81
2023-05-08T07:57:41.291Z,51177.81
2023-05-08T08:02:46.398Z,50941.88
2023-05-08T08:07:51.012Z,50506.00
2023-05-08T08:12:56.933Z,50546.00
2023-05-08T08:18:01.932Z,50500.00
2023-05-08T08:23:06.570Z,50472.03
2023-05-08T08:28:12.500Z,50550.00
2023-05-08T08:33:18.752Z,50607.97
2023-05-08T08:38:23.557Z,50633.97
2023-05-08T08:43:29.176Z,50619.97
2023-05-08T08:48:33.996Z,50575.97
2023-05-08T08:53:45.668Z,50569.97
2023-05-08T08:58:56.405Z,50587.97
2023-05-08T09:04:01.004Z,50757.91
2023-05-08T09:09:06.059Z,50793.91
2023-05-08T09:14:11.787Z,50677.94
2023-05-08T09:19:17.030Z,50713.94
2023-05-08T09:24:23.203Z,50841.88
2023-05-08T09:29:31.513Z,50875.88
2023-05-08T09:34:35.846Z,50781.91
2023-05-08T09:39:42.333Z,50667.94
2023-05-08T09:44:49.718Z,50641.97
2023-05-08T09:50:00.969Z,50647.97
2023-05-08T09:55:07.770Z,50629.97
2023-05-08T10:00:15.575Z,50767.91
2023-05-08T10:05:25.610Z,50973.84
2023-05-08T10:10:31.609Z,51083.81
2023-05-08T10:15:39.721Z,51063.81
2023-05-08T10:20:47.106Z,51117.81
2023-05-08T10:25:59.173Z,50869.88
2023-05-08T10:31:06.539Z,50945.84
2023-05-08T10:36:13.461Z,51041.84
2023-05-08T10:41:18.442Z,50757.91
2023-05-08T10:46:39.435Z,50763.91
2023-05-08T10:51:54.333Z,50941.88
2023-05-08T10:57:10.015Z,50887.88
2023-05-08T11:02:16.808Z,51025.84
2023-05-08T11:07:21.693Z,51007.84
2023-05-08T11:12:27.963Z,50979.84
2023-05-08T11:17:34.289Z,51009.84
2023-05-08T11:22:38.992Z,50945.84
2023-05-08T11:28:14.103Z,50889.88
2023-05-08T11:33:21.250Z,50841.88
2023-05-08T11:38:33.047Z,50999.84
2023-05-08T11:44:00.697Z,51017.84
2023-05-08T11:49:06.966Z,50975.84
2023-05-08T11:54:11.336Z,50971.84
2023-05-08T11:59:15.582Z,50859.88
2023-05-08T12:04:21.585Z,50787.91
2023-05-08T12:09:26.219Z,50877.88
2023-05-08T12:14:30.437Z,50983.84
2023-05-08T12:19:36.412Z,51173.81
2023-05-08T12:24:40.944Z,51125.81
2023-05-08T12:29:46.922Z,50977.84
2023-05-08T12:34:54.025Z,51013.84
2023-05-08T12:39:58.528Z,50945.84
2023-05-08T12:45:02.836Z,50903.88
2023-05-08T12:50:12.424Z,51083.81
2023-05-08T12:55:23.645Z,51049.84
2023-05-08T13:00:35.265Z,50927.88
2023-05-08T13:05:44.307Z,51029.84
2023-05-08T13:10:50.696Z,51031.84
2023-05-08T13:15:56.732Z,51347.75
2023-05-08T13:21:03.847Z,51679.72
2023-05-08T13:26:08.654Z,51863.72
2023-05-08T13:31:13.255Z,51485.75
2023-05-08T13:36:19.025Z,51395.75
2023-05-08T13:41:23.491Z,50829.91
2023-05-08T13:46:27.862Z,50673.94
2023-05-08T13:51:33.465Z,50659.94
2023-05-08T13:56:37.668Z,50621.97
2023-05-08T14:01:42.003Z,50550.00
2023-05-08T14:06:47.767Z,50619.97
2023-05-08T14:11:52.221Z,50544.00
2023-05-08T14:16:57.822Z,50643.97
2023-05-08T14:22:05.032Z,50466.03
2023-05-08T14:27:09.325Z,50759.91
2023-05-08T14:32:13.657Z,50817.91
2023-05-08T14:37:19.647Z,50639.97
2023-05-08T14:42:24.072Z,50280.09
2023-05-08T14:47:28.397Z,50380.06
2023-05-08T14:52:33.947Z,50314.09
2023-05-08T14:57:38.312Z,50362.06
2023-05-08T15:02:42.542Z,50524.00
2023-05-08T15:07:50.191Z,50296.09
2023-05-08T15:12:54.638Z,50234.13
2023-05-08T15:17:58.735Z,50222.13
2023-05-08T15:23:04.301Z,50196.16
2023-05-08T15:28:08.339Z,50182.16
2023-05-08T15:33:12.595Z,50396.06
2023-05-08T15:38:18.639Z,50671.94
2023-05-08T15:43:22.949Z,50476.03
2023-05-08T15:48:27.142Z,50386.06
2023-05-08T15:53:33.821Z,50348.06
2023-05-08T15:58:39.164Z,50246.13
2023-05-08T16:03:43.628Z,50248.13
2023-05-08T16:08:49.772Z,50322.09
2023-05-08T16:13:53.896Z,50240.13
2023-05-08T16:18:58.157Z,50170.16
2023-05-08T16:24:04.084Z,50134.16
2023-05-08T16:29:08.314Z,50076.19
2023-05-08T16:34:12.446Z,50096.19
2023-05-08T16:39:18.418Z,50130.19
2023-05-08T16:44:23.175Z,50144.16
2023-05-08T16:49:27.538Z,50170.16
2023-05-08T16:54:33.340Z,50202.13
2023-05-08T16:59:37.539Z,50202.13
2023-05-08T17:04:41.891Z,50194.16
2023-05-08T17:09:49.558Z,50134.16
2023-05-08T17:14:53.698Z,50038.22
2023-05-08T17:19:58.194Z,50054.22
2023-05-08T17:25:03.767Z,50024.22
2023-05-08T17:30:12.200Z,50038.22
2023-05-08T17:35:16.788Z,50030.22
2023-05-08T17:40:22.536Z,50076.19
2023-05-08T17:45:27.026Z,50052.22
2023-05-08T17:50:31.360Z,50066.22
2023-05-08T17:55:37.406Z,50086.19
2023-05-08T18:00:41.501Z,50070.19
2023-05-08T18:05:46.758Z,49996.25
2023-05-08T18:10:52.661Z,50052.22
2023-05-08T18:15:57.199Z,50038.22
2023-05-08T18:21:01.548Z,49988.25
2023-05-08T18:26:07.598Z,50006.25
2023-05-08T18:31:12.357Z,49974.25
2023-05-08T18:36:16.809Z,49978.25
2023-05-08T18:41:22.807Z,49980.25
2023-05-08T18:46:27.200Z,49984.25
2023-05-08T18:51:32.080Z,49970.25
2023-05-08T18:56:38.079Z,49992.25
2023-05-08T19:01:42.442Z,49990.25
2023-05-08T19:06:47.135Z,49998.25
2023-05-08T19:11:52.728Z,49994.25
2023-05-08T19:16:58.501Z,50026.22
2023-05-08T19:22:02.993Z,50010.22
2023-05-08T19:27:09.062Z,50028.22
2023-05-08T19:32:13.433Z,49988.25
2023-05-08T19:37:17.674Z,50024.22
2023-05-08T19:42:23.431Z,50002.25
2023-05-08T19:47:27.861Z,50014.22
2023-05-08T19:52:32.089Z,49980.25
2023-05-08T19:57:37.658Z,49992.25
2023-05-08T20:02:41.983Z,49984.25
2023-05-08T20:07:46.538Z,49996.25
2023-05-08T20:12:52.137Z,49950.25
2023-05-08T20:17:56.385Z,49966.25
2023-05-08T20:23:00.823Z,49918.28
2023-05-08T20:28:06.410Z,49944.28
2023-05-08T20:33:10.740Z,49936.28
2023-05-08T20:38:16.279Z,49946.28
2023-05-08T20:43:21.852Z,49970.25
2023-05-08T20:48:26.309Z,49954.25
2023-05-08T20:53:30.739Z,49978.25
2023-05-08T20:58:36.794Z,49960.25
2023-05-08T21:03:41.341Z,49954.25
2023-05-08T21:08:45.625Z,49952.25
2023-05-08T21:13:51.152Z,49966.25
2023-05-08T21:18:58.073Z,49990.25
2023-05-08T21:24:02.859Z,50008.25
2023-05-08T21:29:10.891Z,50008.25
2023-05-08T21:34:15.660Z,49998.25
2023-05-08T21:39:20.191Z,49990.25
2023-05-08T21:44:25.764Z,49986.25
2023-05-08T21:49:30.131Z,49970.25
2023-05-08T21:54:34.246Z,50018.22
2023-05-08T21:59:43.090Z,50016.22
2023-05-08T22:04:47.208Z,50048.22
2023-05-08T22:09:51.696Z,50056.22
2023-05-08T22:14:57.193Z,50052.22
2023-05-08T22:20:01.456Z,50024.22
2023-05-08T22:25:06.322Z,50030.22
2023-05-08T22:30:12.560Z,50052.22
2023-05-08T22:35:16.866Z,50082.19
2023-05-08T22:40:22.033Z,50080.19
2023-05-08T22:45:28.332Z,50084.19
2023-05-08T22:50:32.746Z,50092.19
2023-05-08T22:55:37.107Z,50074.19
2023-05-08T23:00:42.941Z,50116.19
2023-05-08T23:05:48.974Z,50094.19
2023-05-08T23:10:53.365Z,50118.19
2023-05-08T23:15:58.888Z,50130.19
2023-05-08T23:21:06.626Z,50138.16
2023-05-08T23:26:10.741Z,50162.16
2023-05-08T23:31:16.472Z,50146.16
2023-05-08T23:36:20.934Z,50156.16
2023-05-08T23:41:26.292Z,50178.16
2023-05-08T23:46:32.184Z,50174.16
2023-05-08T23:51:36.573Z,50182.16
2023-05-08T23:56:41.038Z,50194.16
